sensor_id;sensor_type;location;lat;lon;timestamp;temperature;humidity
32698;DHT22;19087;51.062;3.754;2023-03-31T00:00:26;12.50;99.90
32698;DHT22;19087;51.062;3.754;2023-03-31T00:02:52;12.50;99.90
32698;DHT22;19087;51.062;3.754;2023-03-31T00:05:19;12.40;99.90
32698;DHT22;19087;51.062;3.754;2023-03-31T00:07:46;12.50;99.90
32698;DHT22;19087;51.062;3.754;2023-03-31T00:10:13;12.40;99.90
32698;DHT22;19087;51.062;3.754;2023-03-31T00:12:39;12.40;99.90
32698;DHT22;19087;51.062;3.754;2023-03-31T00:15:05;12.40;99.90
32698;DHT22;19087;51.062;3.754;2023-03-31T00:17:31;12.40;99.90
32698;DHT22;19087;51.062;3.754;2023-03-31T00:19:57;12.40;99.90
32698;DHT22;19087;51.062;3.754;2023-03-31T00:22:25;12.40;99.90
32698;DHT22;19087;51.062;3.754;2023-03-31T00:24:52;12.40;99.90
32698;DHT22;19087;51.062;3.754;2023-03-31T00:27:18;12.40;99.90
32698;DHT22;19087;51.062;3.754;2023-03-31T00:29:45;12.30;99.90
32698;DHT22;19087;51.062;3.754;2023-03-31T00:32:11;12.30;99.90
32698;DHT22;19087;51.062;3.754;2023-03-31T00:34:39;12.20;99.90
32698;DHT22;19087;51.062;3.754;2023-03-31T00:37:05;12.10;99.90
32698;DHT22;19087;51.062;3.754;2023-03-31T00:39:34;12.10;99.90
32698;DHT22;19087;51.062;3.754;2023-03-31T00:42:01;12.00;99.90
32698;DHT22;19087;51.062;3.754;2023-03-31T00:44:28;11.90;99.90
32698;DHT22;19087;51.062;3.754;2023-03-31T00:51:56;11.90;99.90
32698;DHT22;19087;51.062;3.754;2023-03-31T00:54:24;11.80;99.90
32698;DHT22;19087;51.062;3.754;2023-03-31T00:56:51;11.70;99.90
32698;DHT22;19087;51.062;3.754;2023-03-31T00:59:19;11.70;99.90
32698;DHT22;19087;51.062;3.754;2023-03-31T01:01:49;11.50;99.90
32698;DHT22;19087;51.062;3.754;2023-03-31T01:04:14;11.60;99.90
32698;DHT22;19087;51.062;3.754;2023-03-31T01:06:43;11.60;99.90
32698;DHT22;19087;51.062;3.754;2023-03-31T01:09:14;11.60;99.90
32698;DHT22;19087;51.062;3.754;2023-03-31T01:11:41;11.60;99.90
32698;DHT22;19087;51.062;3.754;2023-03-31T01:14:11;11.60;99.90
32698;DHT22;19087;51.062;3.754;2023-03-31T01:16:36;11.60;99.90
32698;DHT22;19087;51.062;3.754;2023-03-31T01:19:05;11.60;99.90
32698;DHT22;19087;51.062;3.754;2023-03-31T01:21:45;11.50;99.90
32698;DHT22;19087;51.062;3.754;2023-03-31T01:27:00;11.50;99.90
32698;DHT22;19087;51.062;3.754;2023-03-31T01:45:27;11.70;99.90
32698;DHT22;19087;51.062;3.754;2023-03-31T01:48:14;11.80;99.90
32698;DHT22;19087;51.062;3.754;2023-03-31T01:50:44;11.70;99.90
32698;DHT22;19087;51.062;3.754;2023-03-31T01:56:19;11.70;99.90
32698;DHT22;19087;51.062;3.754;2023-03-31T02:01:46;11.70;99.90
32698;DHT22;19087;51.062;3.754;2023-03-31T02:04:22;11.60;99.90
32698;DHT22;19087;51.062;3.754;2023-03-31T02:06:56;11.60;99.90
32698;DHT22;19087;51.062;3.754;2023-03-31T02:09:34;11.60;99.90
32698;DHT22;19087;51.062;3.754;2023-03-31T02:12:01;11.60;99.90
32698;DHT22;19087;51.062;3.754;2023-03-31T02:14:28;11.50;99.90
32698;DHT22;19087;51.062;3.754;2023-03-31T02:16:57;11.40;99.90
32698;DHT22;19087;51.062;3.754;2023-03-31T02:19:24;11.40;99.90
32698;DHT22;19087;51.062;3.754;2023-03-31T02:21:52;11.40;99.90
32698;DHT22;19087;51.062;3.754;2023-03-31T02:24:20;11.40;99.90
32698;DHT22;19087;51.062;3.754;2023-03-31T02:29:20;11.30;99.90
32698;DHT22;19087;51.062;3.754;2023-03-31T02:31:48;11.30;99.90
32698;DHT22;19087;51.062;3.754;2023-03-31T02:34:17;11.30;99.90
32698;DHT22;19087;51.062;3.754;2023-03-31T02:36:43;11.30;99.90
32698;DHT22;19087;51.062;3.754;2023-03-31T02:39:14;11.30;99.90
32698;DHT22;19087;51.062;3.754;2023-03-31T02:41:41;11.30;99.90
32698;DHT22;19087;51.062;3.754;2023-03-31T02:44:09;11.30;99.90
32698;DHT22;19087;51.062;3.754;2023-03-31T02:46:36;11.30;99.90
32698;DHT22;19087;51.062;3.754;2023-03-31T02:49:03;11.30;99.90
32698;DHT22;19087;51.062;3.754;2023-03-31T03:06:54;11.30;99.90
32698;DHT22;19087;51.062;3.754;2023-03-31T03:14:40;11.20;99.90
32698;DHT22;19087;51.062;3.754;2023-03-31T03:17:28;11.20;99.90
32698;DHT22;19087;51.062;3.754;2023-03-31T03:20:00;11.20;99.90
32698;DHT22;19087;51.062;3.754;2023-03-31T03:22:26;11.10;99.90
32698;DHT22;19087;51.062;3.754;2023-03-31T03:24:53;11.10;99.90
32698;DHT22;19087;51.062;3.754;2023-03-31T03:27:19;11.00;99.90
32698;DHT22;19087;51.062;3.754;2023-03-31T03:29:46;11.00;99.90
32698;DHT22;19087;51.062;3.754;2023-03-31T03:32:13;11.00;99.90
32698;DHT22;19087;51.062;3.754;2023-03-31T03:34:39;11.00;99.90
32698;DHT22;19087;51.062;3.754;2023-03-31T03:37:04;11.00;99.90
32698;DHT22;19087;51.062;3.754;2023-03-31T03:39:30;10.90;99.90
32698;DHT22;19087;51.062;3.754;2023-03-31T03:41:56;10.80;99.90
32698;DHT22;19087;51.062;3.754;2023-03-31T03:44:21;10.80;99.90
32698;DHT22;19087;51.062;3.754;2023-03-31T03:46:47;10.90;99.90
32698;DHT22;19087;51.062;3.754;2023-03-31T03:49:12;10.80;99.90
32698;DHT22;19087;51.062;3.754;2023-03-31T03:51:38;10.80;99.90
32698;DHT22;19087;51.062;3.754;2023-03-31T03:54:04;10.80;99.90
32698;DHT22;19087;51.062;3.754;2023-03-31T03:56:30;10.80;99.90
32698;DHT22;19087;51.062;3.754;2023-03-31T03:58:56;10.80;99.90
32698;DHT22;19087;51.062;3.754;2023-03-31T04:01:22;10.80;99.90
32698;DHT22;19087;51.062;3.754;2023-03-31T04:03:47;10.80;99.90
32698;DHT22;19087;51.062;3.754;2023-03-31T04:06:13;10.80;99.90
32698;DHT22;19087;51.062;3.754;2023-03-31T04:08:39;10.80;99.90
32698;DHT22;19087;51.062;3.754;2023-03-31T04:11:10;10.90;99.90
32698;DHT22;19087;51.062;3.754;2023-03-31T04:13:38;10.90;99.90
32698;DHT22;19087;51.062;3.754;2023-03-31T04:16:04;10.80;99.90
32698;DHT22;19087;51.062;3.754;2023-03-31T04:18:30;10.70;99.90
32698;DHT22;19087;51.062;3.754;2023-03-31T04:20:55;10.70;99.90
32698;DHT22;19087;51.062;3.754;2023-03-31T04:25:56;10.60;99.90
32698;DHT22;19087;51.062;3.754;2023-03-31T04:28:21;10.50;99.90
32698;DHT22;19087;51.062;3.754;2023-03-31T04:30:48;10.40;99.90
32698;DHT22;19087;51.062;3.754;2023-03-31T04:33:13;10.50;99.90
32698;DHT22;19087;51.062;3.754;2023-03-31T04:35:40;10.50;99.90
32698;DHT22;19087;51.062;3.754;2023-03-31T04:38:15;10.50;99.90
32698;DHT22;19087;51.062;3.754;2023-03-31T04:40:49;10.60;99.90
32698;DHT22;19087;51.062;3.754;2023-03-31T04:43:16;10.70;99.90
32698;DHT22;19087;51.062;3.754;2023-03-31T04:45:42;10.70;99.90
32698;DHT22;19087;51.062;3.754;2023-03-31T04:48:08;10.90;99.90
32698;DHT22;19087;51.062;3.754;2023-03-31T04:50:34;10.80;99.90
32698;DHT22;19087;51.062;3.754;2023-03-31T04:53:00;10.70;99.90
32698;DHT22;19087;51.062;3.754;2023-03-31T04:55:26;10.80;99.90
32698;DHT22;19087;51.062;3.754;2023-03-31T04:57:52;10.70;99.90
32698;DHT22;19087;51.062;3.754;2023-03-31T05:00:17;10.70;99.90
32698;DHT22;19087;51.062;3.754;2023-03-31T05:02:43;10.70;99.90
32698;DHT22;19087;51.062;3.754;2023-03-31T05:05:09;10.60;99.90
32698;DHT22;19087;51.062;3.754;2023-03-31T05:07:35;10.60;99.90
32698;DHT22;19087;51.062;3.754;2023-03-31T05:10:01;10.70;99.90
32698;DHT22;19087;51.062;3.754;2023-03-31T05:12:26;10.70;99.90
32698;DHT22;19087;51.062;3.754;2023-03-31T05:14:52;10.70;99.90
32698;DHT22;19087;51.062;3.754;2023-03-31T05:17:18;10.70;99.90
32698;DHT22;19087;51.062;3.754;2023-03-31T05:19:43;10.80;99.90
32698;DHT22;19087;51.062;3.754;2023-03-31T05:22:09;10.80;99.90
32698;DHT22;19087;51.062;3.754;2023-03-31T05:24:35;10.80;99.90
32698;DHT22;19087;51.062;3.754;2023-03-31T05:27:00;10.90;99.90
32698;DHT22;19087;51.062;3.754;2023-03-31T05:29:26;11.00;99.90
32698;DHT22;19087;51.062;3.754;2023-03-31T05:31:51;11.00;99.90
32698;DHT22;19087;51.062;3.754;2023-03-31T05:34:20;11.00;99.90
32698;DHT22;19087;51.062;3.754;2023-03-31T05:36:46;11.00;99.90
32698;DHT22;19087;51.062;3.754;2023-03-31T05:39:14;11.10;99.90
32698;DHT22;19087;51.062;3.754;2023-03-31T05:41:40;11.10;99.90
32698;DHT22;19087;51.062;3.754;2023-03-31T05:44:06;11.20;99.90
32698;DHT22;19087;51.062;3.754;2023-03-31T05:46:31;11.30;99.90
32698;DHT22;19087;51.062;3.754;2023-03-31T05:48:57;11.30;99.90
32698;DHT22;19087;51.062;3.754;2023-03-31T05:51:23;11.40;99.90
32698;DHT22;19087;51.062;3.754;2023-03-31T05:53:49;11.50;99.90
32698;DHT22;19087;51.062;3.754;2023-03-31T05:56:14;11.50;99.90
32698;DHT22;19087;51.062;3.754;2023-03-31T05:58:40;11.50;99.90
32698;DHT22;19087;51.062;3.754;2023-03-31T06:01:07;11.50;99.90
32698;DHT22;19087;51.062;3.754;2023-03-31T06:03:33;11.50;99.90
32698;DHT22;19087;51.062;3.754;2023-03-31T06:05:59;11.60;99.90
32698;DHT22;19087;51.062;3.754;2023-03-31T06:08:26;11.70;99.90
32698;DHT22;19087;51.062;3.754;2023-03-31T06:10:52;11.60;99.90
32698;DHT22;19087;51.062;3.754;2023-03-31T06:13:19;11.70;99.90
32698;DHT22;19087;51.062;3.754;2023-03-31T06:15:54;11.70;99.90
32698;DHT22;19087;51.062;3.754;2023-03-31T06:18:20;11.70;99.90
32698;DHT22;19087;51.062;3.754;2023-03-31T06:20:46;11.70;99.90
32698;DHT22;19087;51.062;3.754;2023-03-31T06:23:12;11.80;99.90
32698;DHT22;19087;51.062;3.754;2023-03-31T06:25:38;11.80;99.90
32698;DHT22;19087;51.062;3.754;2023-03-31T06:28:04;11.90;99.90
32698;DHT22;19087;51.062;3.754;2023-03-31T06:30:31;11.80;99.90
32698;DHT22;19087;51.062;3.754;2023-03-31T06:32:57;11.80;99.90
32698;DHT22;19087;51.062;3.754;2023-03-31T06:35:22;11.80;99.90
32698;DHT22;19087;51.062;3.754;2023-03-31T06:37:48;11.80;99.90
32698;DHT22;19087;51.062;3.754;2023-03-31T06:40:14;11.80;99.90
32698;DHT22;19087;51.062;3.754;2023-03-31T06:42:40;11.80;99.90
32698;DHT22;19087;51.062;3.754;2023-03-31T06:45:05;11.80;99.90
32698;DHT22;19087;51.062;3.754;2023-03-31T06:47:31;11.90;99.90
32698;DHT22;19087;51.062;3.754;2023-03-31T06:49:56;11.90;99.90
32698;DHT22;19087;51.062;3.754;2023-03-31T06:52:22;11.90;99.90
32698;DHT22;19087;51.062;3.754;2023-03-31T06:54:47;12.00;99.90
32698;DHT22;19087;51.062;3.754;2023-03-31T06:57:13;11.90;99.90
32698;DHT22;19087;51.062;3.754;2023-03-31T06:59:38;12.00;99.90
32698;DHT22;19087;51.062;3.754;2023-03-31T07:02:04;12.10;99.90
32698;DHT22;19087;51.062;3.754;2023-03-31T07:04:31;12.10;99.90
32698;DHT22;19087;51.062;3.754;2023-03-31T07:06:59;12.10;99.90
32698;DHT22;19087;51.062;3.754;2023-03-31T07:09:25;12.10;99.90
32698;DHT22;19087;51.062;3.754;2023-03-31T07:11:50;12.20;99.90
32698;DHT22;19087;51.062;3.754;2023-03-31T07:14:16;12.20;99.90
32698;DHT22;19087;51.062;3.754;2023-03-31T07:16:41;12.20;99.90
32698;DHT22;19087;51.062;3.754;2023-03-31T07:19:07;12.20;99.90
32698;DHT22;19087;51.062;3.754;2023-03-31T07:21:35;12.30;99.90
32698;DHT22;19087;51.062;3.754;2023-03-31T07:24:01;12.30;99.90
32698;DHT22;19087;51.062;3.754;2023-03-31T07:26:27;12.30;99.90
32698;DHT22;19087;51.062;3.754;2023-03-31T07:28:52;12.30;99.90
32698;DHT22;19087;51.062;3.754;2023-03-31T07:31:21;12.40;99.90
32698;DHT22;19087;51.062;3.754;2023-03-31T07:33:47;12.30;99.90
32698;DHT22;19087;51.062;3.754;2023-03-31T07:36:18;12.40;99.90
32698;DHT22;19087;51.062;3.754;2023-03-31T07:38:45;12.40;99.90
32698;DHT22;19087;51.062;3.754;2023-03-31T07:41:14;12.20;99.90
32698;DHT22;19087;51.062;3.754;2023-03-31T07:43:39;12.30;99.90
32698;DHT22;19087;51.062;3.754;2023-03-31T07:46:05;12.30;99.90
32698;DHT22;19087;51.062;3.754;2023-03-31T07:48:32;12.20;99.90
32698;DHT22;19087;51.062;3.754;2023-03-31T07:50:58;12.20;99.90
32698;DHT22;19087;51.062;3.754;2023-03-31T07:53:24;12.20;99.90
32698;DHT22;19087;51.062;3.754;2023-03-31T07:55:49;12.20;99.90
32698;DHT22;19087;51.062;3.754;2023-03-31T07:58:15;12.20;99.90
32698;DHT22;19087;51.062;3.754;2023-03-31T08:00:42;12.20;99.90
32698;DHT22;19087;51.062;3.754;2023-03-31T08:03:08;12.30;99.90
32698;DHT22;19087;51.062;3.754;2023-03-31T08:05:34;12.30;99.90
32698;DHT22;19087;51.062;3.754;2023-03-31T08:07:59;12.50;99.90
32698;DHT22;19087;51.062;3.754;2023-03-31T08:10:26;12.60;99.90
32698;DHT22;19087;51.062;3.754;2023-03-31T08:12:52;12.80;99.90
32698;DHT22;19087;51.062;3.754;2023-03-31T08:15:18;12.80;99.90
32698;DHT22;19087;51.062;3.754;2023-03-31T08:17:43;12.90;99.90
32698;DHT22;19087;51.062;3.754;2023-03-31T08:20:09;13.00;99.90
32698;DHT22;19087;51.062;3.754;2023-03-31T08:22:35;12.80;99.90
32698;DHT22;19087;51.062;3.754;2023-03-31T08:25:01;12.80;99.90
32698;DHT22;19087;51.062;3.754;2023-03-31T08:27:27;12.80;99.90
32698;DHT22;19087;51.062;3.754;2023-03-31T08:29:52;12.80;99.90
32698;DHT22;19087;51.062;3.754;2023-03-31T08:32:21;12.90;99.90
32698;DHT22;19087;51.062;3.754;2023-03-31T08:34:46;12.80;99.90
32698;DHT22;19087;51.062;3.754;2023-03-31T08:37:12;13.00;99.90
32698;DHT22;19087;51.062;3.754;2023-03-31T08:39:40;12.90;99.90
32698;DHT22;19087;51.062;3.754;2023-03-31T08:42:10;12.80;99.90
32698;DHT22;19087;51.062;3.754;2023-03-31T08:44:39;12.80;99.90
32698;DHT22;19087;51.062;3.754;2023-03-31T08:47:09;12.80;99.90
32698;DHT22;19087;51.062;3.754;2023-03-31T08:49:41;12.80;99.90
32698;DHT22;19087;51.062;3.754;2023-03-31T08:52:10;12.90;99.90
32698;DHT22;19087;51.062;3.754;2023-03-31T08:54:40;12.90;99.90
32698;DHT22;19087;51.062;3.754;2023-03-31T08:57:11;13.00;99.90
32698;DHT22;19087;51.062;3.754;2023-03-31T08:59:39;12.90;99.90
32698;DHT22;19087;51.062;3.754;2023-03-31T09:12:19;13.10;99.90
32698;DHT22;19087;51.062;3.754;2023-03-31T09:17:18;12.80;99.90
32698;DHT22;19087;51.062;3.754;2023-03-31T09:19:49;12.90;99.90
32698;DHT22;19087;51.062;3.754;2023-03-31T09:22:21;12.70;99.90
32698;DHT22;19087;51.062;3.754;2023-03-31T09:24:54;12.80;99.90
32698;DHT22;19087;51.062;3.754;2023-03-31T09:27:20;12.80;99.90
32698;DHT22;19087;51.062;3.754;2023-03-31T09:29:50;12.90;99.90
32698;DHT22;19087;51.062;3.754;2023-03-31T09:32:17;12.80;99.90
32698;DHT22;19087;51.062;3.754;2023-03-31T09:34:44;12.90;99.90
32698;DHT22;19087;51.062;3.754;2023-03-31T09:37:10;12.70;99.90
32698;DHT22;19087;51.062;3.754;2023-03-31T09:39:36;12.80;99.90
32698;DHT22;19087;51.062;3.754;2023-03-31T09:42:02;12.90;99.90
32698;DHT22;19087;51.062;3.754;2023-03-31T09:44:33;13.10;99.90
32698;DHT22;19087;51.062;3.754;2023-03-31T09:47:00;13.30;99.90
32698;DHT22;19087;51.062;3.754;2023-03-31T09:49:30;13.50;99.90
32698;DHT22;19087;51.062;3.754;2023-03-31T09:51:59;13.30;99.90
32698;DHT22;19087;51.062;3.754;2023-03-31T09:54:27;13.50;99.90
32698;DHT22;19087;51.062;3.754;2023-03-31T09:56:56;13.40;99.90
32698;DHT22;19087;51.062;3.754;2023-03-31T09:59:23;13.40;99.90
32698;DHT22;19087;51.062;3.754;2023-03-31T10:01:55;13.50;99.90
32698;DHT22;19087;51.062;3.754;2023-03-31T10:04:23;13.50;99.90
32698;DHT22;19087;51.062;3.754;2023-03-31T10:06:50;13.20;99.90
32698;DHT22;19087;51.062;3.754;2023-03-31T10:09:18;13.00;99.90
32698;DHT22;19087;51.062;3.754;2023-03-31T10:11:51;13.10;99.90
32698;DHT22;19087;51.062;3.754;2023-03-31T10:14:17;13.10;99.90
32698;DHT22;19087;51.062;3.754;2023-03-31T10:16:49;13.00;99.90
32698;DHT22;19087;51.062;3.754;2023-03-31T10:21:44;12.90;99.90
32698;DHT22;19087;51.062;3.754;2023-03-31T10:24:16;12.80;99.90
32698;DHT22;19087;51.062;3.754;2023-03-31T10:26:45;12.80;99.90
32698;DHT22;19087;51.062;3.754;2023-03-31T10:29:12;12.80;99.90
32698;DHT22;19087;51.062;3.754;2023-03-31T10:31:40;12.80;99.90
32698;DHT22;19087;51.062;3.754;2023-03-31T10:34:08;12.80;99.90
32698;DHT22;19087;51.062;3.754;2023-03-31T10:36:36;12.90;99.90
32698;DHT22;19087;51.062;3.754;2023-03-31T10:39:04;12.80;99.90
32698;DHT22;19087;51.062;3.754;2023-03-31T10:41:31;12.60;99.90
32698;DHT22;19087;51.062;3.754;2023-03-31T10:43:58;12.50;99.90
32698;DHT22;19087;51.062;3.754;2023-03-31T10:49:22;12.50;99.90
32698;DHT22;19087;51.062;3.754;2023-03-31T10:51:50;12.50;99.90
32698;DHT22;19087;51.062;3.754;2023-03-31T10:54:16;12.50;99.90
32698;DHT22;19087;51.062;3.754;2023-03-31T10:56:46;12.60;99.90
32698;DHT22;19087;51.062;3.754;2023-03-31T11:12:41;13.80;99.90
32698;DHT22;19087;51.062;3.754;2023-03-31T11:20:26;13.30;99.90
32698;DHT22;19087;51.062;3.754;2023-03-31T11:33:46;12.90;99.90
32698;DHT22;19087;51.062;3.754;2023-03-31T11:41:31;13.70;99.90
32698;DHT22;19087;51.062;3.754;2023-03-31T11:43:59;13.90;99.90
32698;DHT22;19087;51.062;3.754;2023-03-31T11:49:02;13.40;99.90
32698;DHT22;19087;51.062;3.754;2023-03-31T11:51:50;13.10;99.90
32698;DHT22;19087;51.062;3.754;2023-03-31T11:54:23;13.20;99.90
32698;DHT22;19087;51.062;3.754;2023-03-31T11:56:56;13.20;99.90
32698;DHT22;19087;51.062;3.754;2023-03-31T12:02:13;13.30;99.90
32698;DHT22;19087;51.062;3.754;2023-03-31T12:04:50;13.30;99.90
32698;DHT22;19087;51.062;3.754;2023-03-31T12:07:31;13.20;99.90
32698;DHT22;19087;51.062;3.754;2023-03-31T12:12:43;13.00;99.90
32698;DHT22;19087;51.062;3.754;2023-03-31T12:17:39;13.30;99.90
32698;DHT22;19087;51.062;3.754;2023-03-31T12:20:40;13.50;99.90
32698;DHT22;19087;51.062;3.754;2023-03-31T12:22:59;13.30;99.90
32698;DHT22;19087;51.062;3.754;2023-03-31T12:25:25;13.00;99.90
32698;DHT22;19087;51.062;3.754;2023-03-31T12:27:54;13.20;99.90
32698;DHT22;19087;51.062;3.754;2023-03-31T12:32:48;13.20;99.90
32698;DHT22;19087;51.062;3.754;2023-03-31T12:40:17;13.50;99.90
32698;DHT22;19087;51.062;3.754;2023-03-31T12:55:39;13.00;99.90
32698;DHT22;19087;51.062;3.754;2023-03-31T13:01:02;12.70;99.90
32698;DHT22;19087;51.062;3.754;2023-03-31T13:03:52;12.90;99.90
32698;DHT22;19087;51.062;3.754;2023-03-31T13:08:59;13.20;99.90
32698;DHT22;19087;51.062;3.754;2023-03-31T13:11:37;12.80;99.90
32698;DHT22;19087;51.062;3.754;2023-03-31T13:16:40;12.80;99.90
32698;DHT22;19087;51.062;3.754;2023-03-31T13:19:05;12.80;99.90
32698;DHT22;19087;51.062;3.754;2023-03-31T13:21:35;12.80;99.90
32698;DHT22;19087;51.062;3.754;2023-03-31T13:24:19;12.80;99.90
32698;DHT22;19087;51.062;3.754;2023-03-31T13:26:46;12.60;99.90
32698;DHT22;19087;51.062;3.754;2023-03-31T13:34:23;12.60;99.90
32698;DHT22;19087;51.062;3.754;2023-03-31T13:36:53;12.80;99.90
32698;DHT22;19087;51.062;3.754;2023-03-31T13:47:42;12.30;99.90
32698;DHT22;19087;51.062;3.754;2023-03-31T13:53:07;12.60;99.90
32698;DHT22;19087;51.062;3.754;2023-03-31T14:11:17;12.20;99.90
32698;DHT22;19087;51.062;3.754;2023-03-31T14:13:57;12.30;99.90
32698;DHT22;19087;51.062;3.754;2023-03-31T14:16:22;12.20;99.90
32698;DHT22;19087;51.062;3.754;2023-03-31T14:18:50;12.30;99.90
32698;DHT22;19087;51.062;3.754;2023-03-31T14:21:23;12.20;99.90
32698;DHT22;19087;51.062;3.754;2023-03-31T14:24:06;12.20;99.90
32698;DHT22;19087;51.062;3.754;2023-03-31T14:26:41;12.30;99.90
32698;DHT22;19087;51.062;3.754;2023-03-31T14:39:19;12.10;99.90
32698;DHT22;19087;51.062;3.754;2023-03-31T14:41:54;12.20;99.90
32698;DHT22;19087;51.062;3.754;2023-03-31T14:44:24;12.20;99.90
32698;DHT22;19087;51.062;3.754;2023-03-31T14:46:55;12.10;99.90
32698;DHT22;19087;51.062;3.754;2023-03-31T14:49:43;12.10;99.90
32698;DHT22;19087;51.062;3.754;2023-03-31T14:54:38;12.10;99.90
32698;DHT22;19087;51.062;3.754;2023-03-31T14:57:05;12.20;99.90
32698;DHT22;19087;51.062;3.754;2023-03-31T15:02:41;12.20;99.90
32698;DHT22;19087;51.062;3.754;2023-03-31T15:05:08;12.00;99.90
32698;DHT22;19087;51.062;3.754;2023-03-31T15:07:39;11.90;99.90
32698;DHT22;19087;51.062;3.754;2023-03-31T15:10:15;11.60;99.90
32698;DHT22;19087;51.062;3.754;2023-03-31T15:12:42;11.50;99.90
32698;DHT22;19087;51.062;3.754;2023-03-31T15:15:09;11.50;99.90
32698;DHT22;19087;51.062;3.754;2023-03-31T15:17:37;11.60;99.90
32698;DHT22;19087;51.062;3.754;2023-03-31T15:20:20;11.60;99.90
32698;DHT22;19087;51.062;3.754;2023-03-31T15:22:49;11.60;99.90
32698;DHT22;19087;51.062;3.754;2023-03-31T15:25:15;11.60;99.90
32698;DHT22;19087;51.062;3.754;2023-03-31T15:27:44;11.60;99.90
32698;DHT22;19087;51.062;3.754;2023-03-31T15:30:13;11.70;99.90
32698;DHT22;19087;51.062;3.754;2023-03-31T15:35:29;11.50;99.90
32698;DHT22;19087;51.062;3.754;2023-03-31T15:37:56;11.50;99.90
32698;DHT22;19087;51.062;3.754;2023-03-31T15:40:24;11.50;99.90
32698;DHT22;19087;51.062;3.754;2023-03-31T15:42:54;11.50;99.90
32698;DHT22;19087;51.062;3.754;2023-03-31T15:47:51;11.60;99.90
32698;DHT22;19087;51.062;3.754;2023-03-31T15:50:21;11.60;99.90
32698;DHT22;19087;51.062;3.754;2023-03-31T15:52:55;11.50;99.90
32698;DHT22;19087;51.062;3.754;2023-03-31T15:55:29;11.60;99.90
32698;DHT22;19087;51.062;3.754;2023-03-31T15:57:56;11.60;99.90
32698;DHT22;19087;51.062;3.754;2023-03-31T16:03:22;11.80;99.90
32698;DHT22;19087;51.062;3.754;2023-03-31T16:05:55;11.90;99.90
32698;DHT22;19087;51.062;3.754;2023-03-31T16:08:30;12.00;99.90
32698;DHT22;19087;51.062;3.754;2023-03-31T16:11:02;12.10;99.90
32698;DHT22;19087;51.062;3.754;2023-03-31T16:13:30;12.30;99.90
32698;DHT22;19087;51.062;3.754;2023-03-31T16:15:56;12.30;99.90
32698;DHT22;19087;51.062;3.754;2023-03-31T16:18:24;12.40;99.90
32698;DHT22;19087;51.062;3.754;2023-03-31T16:20:52;12.40;99.90
32698;DHT22;19087;51.062;3.754;2023-03-31T16:23:19;12.30;99.90
32698;DHT22;19087;51.062;3.754;2023-03-31T16:25:46;12.20;99.90
32698;DHT22;19087;51.062;3.754;2023-03-31T16:28:13;12.10;99.90
32698;DHT22;19087;51.062;3.754;2023-03-31T16:30:41;12.10;99.90
32698;DHT22;19087;51.062;3.754;2023-03-31T16:33:12;11.90;99.90
32698;DHT22;19087;51.062;3.754;2023-03-31T16:35:48;11.80;99.90
32698;DHT22;19087;51.062;3.754;2023-03-31T16:38:17;11.70;99.90
32698;DHT22;19087;51.062;3.754;2023-03-31T16:40:47;11.80;99.90
32698;DHT22;19087;51.062;3.754;2023-03-31T16:43:17;11.90;99.90
32698;DHT22;19087;51.062;3.754;2023-03-31T16:45:44;11.80;99.90
32698;DHT22;19087;51.062;3.754;2023-03-31T16:48:10;11.80;99.90
32698;DHT22;19087;51.062;3.754;2023-03-31T16:50:36;11.70;99.90
32698;DHT22;19087;51.062;3.754;2023-03-31T16:53:03;11.70;99.90
32698;DHT22;19087;51.062;3.754;2023-03-31T16:55:29;11.80;99.90
32698;DHT22;19087;51.062;3.754;2023-03-31T16:57:56;11.80;99.90
32698;DHT22;19087;51.062;3.754;2023-03-31T17:00:23;11.70;99.90
32698;DHT22;19087;51.062;3.754;2023-03-31T17:02:51;11.70;99.90
32698;DHT22;19087;51.062;3.754;2023-03-31T17:05:17;11.70;99.90
32698;DHT22;19087;51.062;3.754;2023-03-31T17:07:46;11.70;99.90
32698;DHT22;19087;51.062;3.754;2023-03-31T17:10:11;11.70;99.90
32698;DHT22;19087;51.062;3.754;2023-03-31T17:12:37;11.50;99.90
32698;DHT22;19087;51.062;3.754;2023-03-31T17:15:03;11.60;99.90
32698;DHT22;19087;51.062;3.754;2023-03-31T17:17:28;11.50;99.90
32698;DHT22;19087;51.062;3.754;2023-03-31T17:19:55;11.50;99.90
32698;DHT22;19087;51.062;3.754;2023-03-31T17:22:21;11.50;99.90
32698;DHT22;19087;51.062;3.754;2023-03-31T17:24:48;11.50;99.90
32698;DHT22;19087;51.062;3.754;2023-03-31T17:27:23;11.50;99.90
32698;DHT22;19087;51.062;3.754;2023-03-31T17:29:51;11.50;99.90
32698;DHT22;19087;51.062;3.754;2023-03-31T17:32:19;11.50;99.90
32698;DHT22;19087;51.062;3.754;2023-03-31T17:34:48;11.40;99.90
32698;DHT22;19087;51.062;3.754;2023-03-31T17:37:15;11.40;99.90
32698;DHT22;19087;51.062;3.754;2023-03-31T17:39:41;11.40;99.90
32698;DHT22;19087;51.062;3.754;2023-03-31T17:42:07;11.40;99.90
32698;DHT22;19087;51.062;3.754;2023-03-31T17:44:33;11.30;99.90
32698;DHT22;19087;51.062;3.754;2023-03-31T17:47:00;11.30;99.90
32698;DHT22;19087;51.062;3.754;2023-03-31T17:49:27;11.30;99.90
32698;DHT22;19087;51.062;3.754;2023-03-31T17:51:53;11.30;99.90
32698;DHT22;19087;51.062;3.754;2023-03-31T17:54:19;11.40;99.90
32698;DHT22;19087;51.062;3.754;2023-03-31T17:56:44;11.50;99.90
32698;DHT22;19087;51.062;3.754;2023-03-31T17:59:13;11.50;99.90
32698;DHT22;19087;51.062;3.754;2023-03-31T18:01:41;11.60;99.90
32698;DHT22;19087;51.062;3.754;2023-03-31T18:04:11;11.70;99.90
32698;DHT22;19087;51.062;3.754;2023-03-31T18:06:39;11.70;99.90
32698;DHT22;19087;51.062;3.754;2023-03-31T18:09:14;11.50;99.90
32698;DHT22;19087;51.062;3.754;2023-03-31T18:11:41;11.60;99.90
32698;DHT22;19087;51.062;3.754;2023-03-31T18:14:09;11.50;99.90
32698;DHT22;19087;51.062;3.754;2023-03-31T18:16:34;11.50;99.90
32698;DHT22;19087;51.062;3.754;2023-03-31T18:19:01;11.40;99.90
32698;DHT22;19087;51.062;3.754;2023-03-31T18:21:30;11.30;99.90
32698;DHT22;19087;51.062;3.754;2023-03-31T18:23:55;11.20;99.90
32698;DHT22;19087;51.062;3.754;2023-03-31T18:26:27;11.10;99.90
32698;DHT22;19087;51.062;3.754;2023-03-31T18:28:53;11.20;99.90
32698;DHT22;19087;51.062;3.754;2023-03-31T18:31:22;11.10;99.90
32698;DHT22;19087;51.062;3.754;2023-03-31T18:34:08;11.10;99.90
32698;DHT22;19087;51.062;3.754;2023-03-31T18:36:36;11.10;99.90
32698;DHT22;19087;51.062;3.754;2023-03-31T18:39:02;11.00;99.90
32698;DHT22;19087;51.062;3.754;2023-03-31T18:41:28;11.00;99.90
32698;DHT22;19087;51.062;3.754;2023-03-31T18:43:54;11.00;99.90
32698;DHT22;19087;51.062;3.754;2023-03-31T18:46:20;11.00;99.90
32698;DHT22;19087;51.062;3.754;2023-03-31T18:48:46;10.90;99.90
32698;DHT22;19087;51.062;3.754;2023-03-31T18:51:12;10.90;99.90
32698;DHT22;19087;51.062;3.754;2023-03-31T18:53:38;11.00;99.90
32698;DHT22;19087;51.062;3.754;2023-03-31T18:56:04;10.90;99.90
32698;DHT22;19087;51.062;3.754;2023-03-31T18:58:29;10.90;99.90